sensor_id;sensor_type;location;lat;lon;timestamp;P1;durP1;ratioP1;P2;durP2;ratioP2
47429;SDS011;33181;49.246;7.372;2022-08-19T00:00:13;25.70;;;21.40;;
47429;SDS011;33181;49.246;7.372;2022-08-19T00:02:40;29.83;;;24.30;;
47429;SDS011;33181;49.246;7.372;2022-08-19T00:05:07;25.73;;;22.40;;
47429;SDS011;33181;49.246;7.372;2022-08-19T00:07:33;28.23;;;23.13;;
47429;SDS011;33181;49.246;7.372;2022-08-19T00:09:59;28.63;;;24.90;;
47429;SDS011;33181;49.246;7.372;2022-08-19T00:12:25;26.20;;;22.10;;
47429;SDS011;33181;49.246;7.372;2022-08-19T00:14:52;23.87;;;21.07;;
47429;SDS011;33181;49.246;7.372;2022-08-19T00:17:19;25.73;;;22.53;;
47429;SDS011;33181;49.246;7.372;2022-08-19T00:19:45;26.40;;;22.60;;
47429;SDS011;33181;49.246;7.372;2022-08-19T00:22:11;26.97;;;22.17;;
47429;SDS011;33181;49.246;7.372;2022-08-19T00:24:38;26.97;;;23.30;;
47429;SDS011;33181;49.246;7.372;2022-08-19T00:27:05;29.13;;;24.50;;
47429;SDS011;33181;49.246;7.372;2022-08-19T00:29:31;35.40;;;27.90;;
47429;SDS011;33181;49.246;7.372;2022-08-19T00:31:57;30.60;;;26.10;;
47429;SDS011;33181;49.246;7.372;2022-08-19T00:34:25;28.83;;;23.80;;
47429;SDS011;33181;49.246;7.372;2022-08-19T00:36:53;26.43;;;22.33;;
47429;SDS011;33181;49.246;7.372;2022-08-19T00:39:20;25.93;;;21.70;;
47429;SDS011;33181;49.246;7.372;2022-08-19T00:41:47;26.00;;;21.80;;
47429;SDS011;33181;49.246;7.372;2022-08-19T00:44:17;27.63;;;22.43;;
47429;SDS011;33181;49.246;7.372;2022-08-19T00:46:49;25.03;;;21.23;;
47429;SDS011;33181;49.246;7.372;2022-08-19T00:52:07;24.47;;;21.40;;
47429;SDS011;33181;49.246;7.372;2022-08-19T00:54:38;25.83;;;21.20;;
47429;SDS011;33181;49.246;7.372;2022-08-19T00:57:08;22.53;;;20.10;;
47429;SDS011;33181;49.246;7.372;2022-08-19T00:59:38;22.43;;;20.03;;
47429;SDS011;33181;49.246;7.372;2022-08-19T01:02:07;23.63;;;20.83;;
47429;SDS011;33181;49.246;7.372;2022-08-19T01:04:33;26.70;;;22.47;;
47429;SDS011;33181;49.246;7.372;2022-08-19T01:06:59;25.20;;;22.23;;
47429;SDS011;33181;49.246;7.372;2022-08-19T01:09:26;23.47;;;20.80;;
47429;SDS011;33181;49.246;7.372;2022-08-19T01:11:52;27.23;;;22.80;;
47429;SDS011;33181;49.246;7.372;2022-08-19T01:14:18;24.30;;;21.10;;
47429;SDS011;33181;49.246;7.372;2022-08-19T01:16:44;28.00;;;24.10;;
47429;SDS011;33181;49.246;7.372;2022-08-19T01:19:26;32.30;;;25.60;;
47429;SDS011;33181;49.246;7.372;2022-08-19T01:22:01;39.40;;;29.70;;
47429;SDS011;33181;49.246;7.372;2022-08-19T01:24:46;37.63;;;30.33;;
47429;SDS011;33181;49.246;7.372;2022-08-19T01:27:12;41.70;;;30.07;;
47429;SDS011;33181;49.246;7.372;2022-08-19T01:29:39;44.33;;;31.90;;
47429;SDS011;33181;49.246;7.372;2022-08-19T01:32:07;40.53;;;30.53;;
47429;SDS011;33181;49.246;7.372;2022-08-19T01:34:36;36.80;;;31.07;;
47429;SDS011;33181;49.246;7.372;2022-08-19T01:37:09;35.37;;;29.43;;
47429;SDS011;33181;49.246;7.372;2022-08-19T01:39:37;36.77;;;29.40;;
47429;SDS011;33181;49.246;7.372;2022-08-19T01:42:05;35.57;;;29.23;;
47429;SDS011;33181;49.246;7.372;2022-08-19T01:44:33;34.30;;;28.17;;
47429;SDS011;33181;49.246;7.372;2022-08-19T01:47:01;37.80;;;29.90;;
47429;SDS011;33181;49.246;7.372;2022-08-19T01:49:28;36.30;;;29.13;;
47429;SDS011;33181;49.246;7.372;2022-08-19T01:51:55;36.90;;;29.93;;
47429;SDS011;33181;49.246;7.372;2022-08-19T01:54:23;34.43;;;27.00;;
47429;SDS011;33181;49.246;7.372;2022-08-19T01:56:50;36.67;;;27.37;;
47429;SDS011;33181;49.246;7.372;2022-08-19T01:59:19;29.30;;;26.00;;
47429;SDS011;33181;49.246;7.372;2022-08-19T02:01:47;29.40;;;25.10;;
47429;SDS011;33181;49.246;7.372;2022-08-19T02:04:13;31.90;;;26.43;;
47429;SDS011;33181;49.246;7.372;2022-08-19T02:06:39;29.20;;;24.70;;
47429;SDS011;33181;49.246;7.372;2022-08-19T02:09:06;30.77;;;26.23;;
47429;SDS011;33181;49.246;7.372;2022-08-19T02:11:34;29.30;;;25.10;;
47429;SDS011;33181;49.246;7.372;2022-08-19T02:14:04;31.60;;;26.07;;
47429;SDS011;33181;49.246;7.372;2022-08-19T02:16:32;28.10;;;24.60;;
47429;SDS011;33181;49.246;7.372;2022-08-19T02:18:59;30.47;;;24.20;;
47429;SDS011;33181;49.246;7.372;2022-08-19T02:21:25;29.30;;;24.13;;
47429;SDS011;33181;49.246;7.372;2022-08-19T02:23:53;24.87;;;21.97;;
47429;SDS011;33181;49.246;7.372;2022-08-19T02:26:18;28.00;;;24.30;;
47429;SDS011;33181;49.246;7.372;2022-08-19T02:28:44;29.00;;;24.60;;
47429;SDS011;33181;49.246;7.372;2022-08-19T02:31:14;32.60;;;25.17;;
47429;SDS011;33181;49.246;7.372;2022-08-19T02:33:44;27.40;;;23.67;;
47429;SDS011;33181;49.246;7.372;2022-08-19T02:36:11;26.80;;;23.40;;
47429;SDS011;33181;49.246;7.372;2022-08-19T02:38:38;25.20;;;22.23;;
47429;SDS011;33181;49.246;7.372;2022-08-19T02:41:06;27.17;;;23.30;;
47429;SDS011;33181;49.246;7.372;2022-08-19T02:43:38;25.63;;;22.83;;
47429;SDS011;33181;49.246;7.372;2022-08-19T02:46:15;27.17;;;24.17;;
47429;SDS011;33181;49.246;7.372;2022-08-19T02:48:49;25.03;;;21.93;;
47429;SDS011;33181;49.246;7.372;2022-08-19T02:51:18;26.97;;;23.00;;
47429;SDS011;33181;49.246;7.372;2022-08-19T02:53:49;26.83;;;23.37;;
47429;SDS011;33181;49.246;7.372;2022-08-19T02:56:14;25.93;;;22.00;;
47429;SDS011;33181;49.246;7.372;2022-08-19T02:58:40;26.77;;;22.70;;
47429;SDS011;33181;49.246;7.372;2022-08-19T03:01:07;29.73;;;25.20;;
47429;SDS011;33181;49.246;7.372;2022-08-19T03:03:35;33.00;;;27.73;;
47429;SDS011;33181;49.246;7.372;2022-08-19T03:06:12;31.77;;;26.23;;
47429;SDS011;33181;49.246;7.372;2022-08-19T03:08:41;32.70;;;27.20;;
47429;SDS011;33181;49.246;7.372;2022-08-19T03:11:13;34.40;;;27.43;;
47429;SDS011;33181;49.246;7.372;2022-08-19T03:13:45;31.17;;;25.77;;
47429;SDS011;33181;49.246;7.372;2022-08-19T03:16:11;30.40;;;25.27;;
47429;SDS011;33181;49.246;7.372;2022-08-19T03:18:37;36.00;;;29.50;;
47429;SDS011;33181;49.246;7.372;2022-08-19T03:21:04;34.10;;;28.33;;
47429;SDS011;33181;49.246;7.372;2022-08-19T03:23:30;30.93;;;26.17;;
47429;SDS011;33181;49.246;7.372;2022-08-19T03:25:56;28.70;;;24.97;;
47429;SDS011;33181;49.246;7.372;2022-08-19T03:28:22;30.60;;;25.70;;
47429;SDS011;33181;49.246;7.372;2022-08-19T03:30:59;30.03;;;25.33;;
47429;SDS011;33181;49.246;7.372;2022-08-19T03:33:28;30.70;;;25.60;;
47429;SDS011;33181;49.246;7.372;2022-08-19T03:36:38;25.27;;;22.50;;
47429;SDS011;33181;49.246;7.372;2022-08-19T03:38:52;28.13;;;24.27;;
47429;SDS011;33181;49.246;7.372;2022-08-19T03:41:22;28.60;;;23.43;;
47429;SDS011;33181;49.246;7.372;2022-08-19T03:43:54;28.30;;;24.40;;
47429;SDS011;33181;49.246;7.372;2022-08-19T03:46:24;30.50;;;25.07;;
47429;SDS011;33181;49.246;7.372;2022-08-19T03:48:55;33.30;;;25.30;;
47429;SDS011;33181;49.246;7.372;2022-08-19T03:51:27;27.53;;;24.30;;
47429;SDS011;33181;49.246;7.372;2022-08-19T03:53:59;30.90;;;26.10;;
47429;SDS011;33181;49.246;7.372;2022-08-19T03:56:28;30.17;;;24.67;;
47429;SDS011;33181;49.246;7.372;2022-08-19T03:58:55;33.33;;;26.60;;
47429;SDS011;33181;49.246;7.372;2022-08-19T04:01:23;30.03;;;24.80;;
47429;SDS011;33181;49.246;7.372;2022-08-19T04:03:51;28.67;;;25.13;;
47429;SDS011;33181;49.246;7.372;2022-08-19T04:06:20;29.63;;;25.27;;
47429;SDS011;33181;49.246;7.372;2022-08-19T04:08:52;28.97;;;25.67;;
47429;SDS011;33181;49.246;7.372;2022-08-19T04:11:21;32.57;;;26.50;;
47429;SDS011;33181;49.246;7.372;2022-08-19T04:13:51;31.67;;;25.37;;
47429;SDS011;33181;49.246;7.372;2022-08-19T04:16:19;28.00;;;24.70;;
47429;SDS011;33181;49.246;7.372;2022-08-19T04:18:53;32.53;;;25.90;;
47429;SDS011;33181;49.246;7.372;2022-08-19T04:21:25;27.40;;;24.00;;
47429;SDS011;33181;49.246;7.372;2022-08-19T04:23:53;29.50;;;25.00;;
47429;SDS011;33181;49.246;7.372;2022-08-19T04:26:21;30.53;;;25.77;;
47429;SDS011;33181;49.246;7.372;2022-08-19T04:29:00;29.50;;;25.33;;
47429;SDS011;33181;49.246;7.372;2022-08-19T04:31:30;30.80;;;24.90;;
47429;SDS011;33181;49.246;7.372;2022-08-19T04:34:01;27.53;;;23.87;;
47429;SDS011;33181;49.246;7.372;2022-08-19T04:36:32;33.50;;;26.03;;
47429;SDS011;33181;49.246;7.372;2022-08-19T04:39:02;35.67;;;26.77;;
47429;SDS011;33181;49.246;7.372;2022-08-19T04:41:31;32.63;;;26.03;;
47429;SDS011;33181;49.246;7.372;2022-08-19T04:44:16;35.03;;;25.50;;
47429;SDS011;33181;49.246;7.372;2022-08-19T04:46:43;34.00;;;25.83;;
47429;SDS011;33181;49.246;7.372;2022-08-19T04:49:09;31.27;;;24.90;;
47429;SDS011;33181;49.246;7.372;2022-08-19T04:51:36;32.30;;;26.17;;
47429;SDS011;33181;49.246;7.372;2022-08-19T04:54:04;29.33;;;23.80;;
47429;SDS011;33181;49.246;7.372;2022-08-19T04:56:30;31.83;;;26.00;;
47429;SDS011;33181;49.246;7.372;2022-08-19T04:58:56;29.07;;;24.80;;
47429;SDS011;33181;49.246;7.372;2022-08-19T05:01:26;31.17;;;25.33;;
47429;SDS011;33181;49.246;7.372;2022-08-19T05:03:53;32.50;;;26.50;;
47429;SDS011;33181;49.246;7.372;2022-08-19T05:06:21;32.93;;;26.60;;
47429;SDS011;33181;49.246;7.372;2022-08-19T05:08:48;32.23;;;26.87;;
47429;SDS011;33181;49.246;7.372;2022-08-19T05:11:16;31.70;;;24.67;;
47429;SDS011;33181;49.246;7.372;2022-08-19T05:13:53;37.03;;;26.87;;
47429;SDS011;33181;49.246;7.372;2022-08-19T05:16:19;33.43;;;26.70;;
47429;SDS011;33181;49.246;7.372;2022-08-19T05:18:47;33.47;;;26.20;;
47429;SDS011;33181;49.246;7.372;2022-08-19T05:21:32;34.20;;;26.27;;
47429;SDS011;33181;49.246;7.372;2022-08-19T05:24:18;31.60;;;25.73;;
47429;SDS011;33181;49.246;7.372;2022-08-19T05:26:47;30.63;;;25.30;;
47429;SDS011;33181;49.246;7.372;2022-08-19T05:29:16;29.77;;;23.93;;
47429;SDS011;33181;49.246;7.372;2022-08-19T05:31:45;29.30;;;23.70;;
47429;SDS011;33181;49.246;7.372;2022-08-19T05:34:14;30.30;;;24.93;;
47429;SDS011;33181;49.246;7.372;2022-08-19T05:36:43;34.30;;;24.10;;
47429;SDS011;33181;49.246;7.372;2022-08-19T05:39:13;26.10;;;22.93;;
47429;SDS011;33181;49.246;7.372;2022-08-19T05:41:42;30.17;;;24.47;;
47429;SDS011;33181;49.246;7.372;2022-08-19T05:44:13;27.07;;;23.73;;
47429;SDS011;33181;49.246;7.372;2022-08-19T05:46:40;29.67;;;25.23;;
47429;SDS011;33181;49.246;7.372;2022-08-19T05:49:12;31.50;;;23.80;;
47429;SDS011;33181;49.246;7.372;2022-08-19T05:51:40;28.07;;;23.20;;
47429;SDS011;33181;49.246;7.372;2022-08-19T05:54:07;32.07;;;24.17;;
47429;SDS011;33181;49.246;7.372;2022-08-19T05:56:33;30.37;;;24.37;;
47429;SDS011;33181;49.246;7.372;2022-08-19T05:59:03;27.10;;;22.43;;
47429;SDS011;33181;49.246;7.372;2022-08-19T06:01:33;27.67;;;23.57;;
47429;SDS011;33181;49.246;7.372;2022-08-19T06:04:01;30.80;;;24.00;;
47429;SDS011;33181;49.246;7.372;2022-08-19T06:06:28;25.10;;;22.00;;
47429;SDS011;33181;49.246;7.372;2022-08-19T06:08:54;25.60;;;20.20;;
47429;SDS011;33181;49.246;7.372;2022-08-19T06:11:24;22.87;;;19.50;;
47429;SDS011;33181;49.246;7.372;2022-08-19T06:14:04;26.63;;;20.40;;
47429;SDS011;33181;49.246;7.372;2022-08-19T06:16:36;23.50;;;20.60;;
47429;SDS011;33181;49.246;7.372;2022-08-19T06:19:04;21.40;;;18.63;;
47429;SDS011;33181;49.246;7.372;2022-08-19T06:21:41;22.00;;;17.97;;
47429;SDS011;33181;49.246;7.372;2022-08-19T06:24:10;25.80;;;19.93;;
47429;SDS011;33181;49.246;7.372;2022-08-19T06:26:44;25.27;;;20.37;;
47429;SDS011;33181;49.246;7.372;2022-08-19T06:29:14;24.10;;;19.83;;
47429;SDS011;33181;49.246;7.372;2022-08-19T06:31:43;24.23;;;20.53;;
47429;SDS011;33181;49.246;7.372;2022-08-19T06:34:14;20.67;;;18.43;;
47429;SDS011;33181;49.246;7.372;2022-08-19T06:36:42;23.17;;;20.20;;
47429;SDS011;33181;49.246;7.372;2022-08-19T06:39:16;25.77;;;21.17;;
47429;SDS011;33181;49.246;7.372;2022-08-19T06:41:50;24.30;;;20.80;;
47429;SDS011;33181;49.246;7.372;2022-08-19T06:44:19;25.47;;;19.90;;
47429;SDS011;33181;49.246;7.372;2022-08-19T06:46:47;23.57;;;19.30;;
47429;SDS011;33181;49.246;7.372;2022-08-19T06:49:14;21.40;;;18.67;;
47429;SDS011;33181;49.246;7.372;2022-08-19T06:51:44;21.40;;;18.53;;
47429;SDS011;33181;49.246;7.372;2022-08-19T06:54:15;24.17;;;18.20;;
47429;SDS011;33181;49.246;7.372;2022-08-19T06:56:42;18.80;;;16.80;;
47429;SDS011;33181;49.246;7.372;2022-08-19T06:59:11;21.20;;;17.60;;
47429;SDS011;33181;49.246;7.372;2022-08-19T07:01:41;20.77;;;17.87;;
47429;SDS011;33181;49.246;7.372;2022-08-19T07:04:12;20.23;;;18.13;;
47429;SDS011;33181;49.246;7.372;2022-08-19T07:06:40;20.23;;;16.70;;
47429;SDS011;33181;49.246;7.372;2022-08-19T07:09:09;20.50;;;17.77;;
47429;SDS011;33181;49.246;7.372;2022-08-19T07:11:44;21.33;;;18.37;;
47429;SDS011;33181;49.246;7.372;2022-08-19T07:14:13;17.83;;;15.90;;
47429;SDS011;33181;49.246;7.372;2022-08-19T07:16:39;19.53;;;16.20;;
47429;SDS011;33181;49.246;7.372;2022-08-19T07:19:05;17.87;;;15.97;;
47429;SDS011;33181;49.246;7.372;2022-08-19T07:21:31;16.40;;;14.23;;
47429;SDS011;33181;49.246;7.372;2022-08-19T07:23:58;15.60;;;14.00;;
47429;SDS011;33181;49.246;7.372;2022-08-19T07:26:29;16.93;;;15.13;;
47429;SDS011;33181;49.246;7.372;2022-08-19T07:28:58;21.40;;;15.00;;
47429;SDS011;33181;49.246;7.372;2022-08-19T07:31:26;18.80;;;15.47;;
47429;SDS011;33181;49.246;7.372;2022-08-19T07:33:53;16.83;;;15.03;;
47429;SDS011;33181;49.246;7.372;2022-08-19T07:36:23;16.47;;;14.10;;
47429;SDS011;33181;49.246;7.372;2022-08-19T07:38:56;16.77;;;15.13;;
47429;SDS011;33181;49.246;7.372;2022-08-19T07:41:23;20.80;;;14.50;;
47429;SDS011;33181;49.246;7.372;2022-08-19T07:43:51;17.17;;;15.37;;
47429;SDS011;33181;49.246;7.372;2022-08-19T07:46:18;16.27;;;14.57;;
47429;SDS011;33181;49.246;7.372;2022-08-19T07:48:48;16.33;;;13.50;;
47429;SDS011;33181;49.246;7.372;2022-08-19T07:51:17;18.10;;;14.87;;
47429;SDS011;33181;49.246;7.372;2022-08-19T07:53:45;17.07;;;15.23;;
47429;SDS011;33181;49.246;7.372;2022-08-19T07:56:16;18.60;;;16.60;;
47429;SDS011;33181;49.246;7.372;2022-08-19T07:58:45;18.43;;;16.37;;
47429;SDS011;33181;49.246;7.372;2022-08-19T08:01:15;16.13;;;14.43;;
47429;SDS011;33181;49.246;7.372;2022-08-19T08:03:47;18.07;;;15.53;;
47429;SDS011;33181;49.246;7.372;2022-08-19T08:06:32;20.20;;;16.07;;
47429;SDS011;33181;49.246;7.372;2022-08-19T08:09:18;20.13;;;14.73;;
47429;SDS011;33181;49.246;7.372;2022-08-19T08:11:59;17.47;;;15.63;;
47429;SDS011;33181;49.246;7.372;2022-08-19T08:14:50;17.30;;;15.00;;
47429;SDS011;33181;49.246;7.372;2022-08-19T08:17:17;16.90;;;15.10;;
47429;SDS011;33181;49.246;7.372;2022-08-19T08:19:49;18.57;;;15.00;;
47429;SDS011;33181;49.246;7.372;2022-08-19T08:22:16;18.83;;;16.83;;
47429;SDS011;33181;49.246;7.372;2022-08-19T08:25:12;19.03;;;16.87;;
47429;SDS011;33181;49.246;7.372;2022-08-19T08:27:42;21.07;;;18.30;;
47429;SDS011;33181;49.246;7.372;2022-08-19T08:30:12;16.03;;;14.43;;
47429;SDS011;33181;49.246;7.372;2022-08-19T08:32:43;22.30;;;19.20;;
47429;SDS011;33181;49.246;7.372;2022-08-19T08:35:10;19.63;;;17.07;;
47429;SDS011;33181;49.246;7.372;2022-08-19T08:37:39;20.87;;;16.67;;
47429;SDS011;33181;49.246;7.372;2022-08-19T08:40:06;20.07;;;17.07;;
47429;SDS011;33181;49.246;7.372;2022-08-19T08:42:55;19.40;;;16.53;;
47429;SDS011;33181;49.246;7.372;2022-08-19T08:46:10;27.00;;;17.33;;
47429;SDS011;33181;49.246;7.372;2022-08-19T08:52:06;17.33;;;15.50;;
47429;SDS011;33181;49.246;7.372;2022-08-19T08:54:47;18.33;;;16.50;;
47429;SDS011;33181;49.246;7.372;2022-08-19T08:57:18;15.33;;;13.83;;
47429;SDS011;33181;49.246;7.372;2022-08-19T09:00:33;20.03;;;16.43;;
47429;SDS011;33181;49.246;7.372;2022-08-19T09:03:03;16.13;;;14.50;;
47429;SDS011;33181;49.246;7.372;2022-08-19T09:05:49;19.50;;;16.50;;
47429;SDS011;33181;49.246;7.372;2022-08-19T09:11:48;16.10;;;13.67;;
47429;SDS011;33181;49.246;7.372;2022-08-19T09:17:28;15.40;;;13.73;;
47429;SDS011;33181;49.246;7.372;2022-08-19T09:19:57;13.93;;;12.60;;
47429;SDS011;33181;49.246;7.372;2022-08-19T09:22:33;12.37;;;11.00;;
47429;SDS011;33181;49.246;7.372;2022-08-19T09:25:01;12.40;;;11.20;;
47429;SDS011;33181;49.246;7.372;2022-08-19T09:27:27;16.30;;;10.80;;
47429;SDS011;33181;49.246;7.372;2022-08-19T09:29:54;14.50;;;12.47;;
47429;SDS011;33181;49.246;7.372;2022-08-19T09:32:20;17.03;;;11.37;;
47429;SDS011;33181;49.246;7.372;2022-08-19T09:34:47;13.33;;;11.40;;
47429;SDS011;33181;49.246;7.372;2022-08-19T09:37:13;12.97;;;11.77;;
47429;SDS011;33181;49.246;7.372;2022-08-19T09:39:39;13.67;;;12.27;;
47429;SDS011;33181;49.246;7.372;2022-08-19T09:42:06;12.13;;;10.90;;
47429;SDS011;33181;49.246;7.372;2022-08-19T09:44:37;11.97;;;10.73;;
47429;SDS011;33181;49.246;7.372;2022-08-19T09:47:04;12.57;;;11.20;;
47429;SDS011;33181;49.246;7.372;2022-08-19T09:49:30;11.40;;;10.20;;
47429;SDS011;33181;49.246;7.372;2022-08-19T09:51:56;10.07;;;9.10;;
47429;SDS011;33181;49.246;7.372;2022-08-19T09:54:23;10.40;;;9.30;;
47429;SDS011;33181;49.246;7.372;2022-08-19T09:56:49;9.47;;;8.47;;
47429;SDS011;33181;49.246;7.372;2022-08-19T09:59:15;9.73;;;8.83;;
47429;SDS011;33181;49.246;7.372;2022-08-19T10:01:41;10.40;;;8.20;;
47429;SDS011;33181;49.246;7.372;2022-08-19T10:04:07;9.17;;;8.27;;
47429;SDS011;33181;49.246;7.372;2022-08-19T10:06:34;8.83;;;8.03;;
47429;SDS011;33181;49.246;7.372;2022-08-19T10:09:03;9.67;;;8.80;;
47429;SDS011;33181;49.246;7.372;2022-08-19T10:11:31;8.60;;;7.90;;
47429;SDS011;33181;49.246;7.372;2022-08-19T10:13:58;8.67;;;7.80;;
47429;SDS011;33181;49.246;7.372;2022-08-19T10:16:24;9.03;;;7.70;;
47429;SDS011;33181;49.246;7.372;2022-08-19T10:18:51;8.60;;;7.80;;
47429;SDS011;33181;49.246;7.372;2022-08-19T10:21:19;9.83;;;8.30;;
47429;SDS011;33181;49.246;7.372;2022-08-19T10:23:53;10.03;;;8.90;;
47429;SDS011;33181;49.246;7.372;2022-08-19T10:26:24;8.97;;;8.17;;
47429;SDS011;33181;49.246;7.372;2022-08-19T10:28:55;9.87;;;8.70;;
47429;SDS011;33181;49.246;7.372;2022-08-19T10:31:28;9.53;;;8.63;;
47429;SDS011;33181;49.246;7.372;2022-08-19T10:33:56;8.97;;;8.07;;
47429;SDS011;33181;49.246;7.372;2022-08-19T10:36:24;10.23;;;8.60;;
47429;SDS011;33181;49.246;7.372;2022-08-19T10:39:00;8.77;;;7.87;;
47429;SDS011;33181;49.246;7.372;2022-08-19T10:41:32;8.47;;;7.57;;
47429;SDS011;33181;49.246;7.372;2022-08-19T10:44:05;8.60;;;7.80;;
47429;SDS011;33181;49.246;7.372;2022-08-19T10:46:36;7.87;;;7.10;;
47429;SDS011;33181;49.246;7.372;2022-08-19T10:49:06;8.57;;;7.77;;
47429;SDS011;33181;49.246;7.372;2022-08-19T10:51:34;8.77;;;7.97;;
47429;SDS011;33181;49.246;7.372;2022-08-19T10:54:19;8.07;;;7.37;;
47429;SDS011;33181;49.246;7.372;2022-08-19T10:56:45;7.90;;;7.10;;
47429;SDS011;33181;49.246;7.372;2022-08-19T10:59:21;8.27;;;7.57;;
47429;SDS011;33181;49.246;7.372;2022-08-19T11:01:52;11.20;;;7.40;;
47429;SDS011;33181;49.246;7.372;2022-08-19T11:04:23;10.50;;;7.30;;
47429;SDS011;33181;49.246;7.372;2022-08-19T11:06:49;7.30;;;6.70;;
47429;SDS011;33181;49.246;7.372;2022-08-19T11:09:16;7.80;;;7.00;;
47429;SDS011;33181;49.246;7.372;2022-08-19T11:11:49;7.33;;;6.73;;
47429;SDS011;33181;49.246;7.372;2022-08-19T11:14:18;7.17;;;6.57;;
47429;SDS011;33181;49.246;7.372;2022-08-19T11:16:46;8.30;;;6.90;;
47429;SDS011;33181;49.246;7.372;2022-08-19T11:19:16;7.20;;;6.50;;
47429;SDS011;33181;49.246;7.372;2022-08-19T11:21:44;7.30;;;6.60;;
47429;SDS011;33181;49.246;7.372;2022-08-19T11:24:14;9.57;;;6.10;;
47429;SDS011;33181;49.246;7.372;2022-08-19T11:26:44;6.90;;;6.30;;
47429;SDS011;33181;49.246;7.372;2022-08-19T11:29:11;6.63;;;6.03;;
47429;SDS011;33181;49.246;7.372;2022-08-19T11:31:40;7.93;;;7.23;;
47429;SDS011;33181;49.246;7.372;2022-08-19T11:34:10;7.90;;;7.10;;
47429;SDS011;33181;49.246;7.372;2022-08-19T11:36:40;7.50;;;6.77;;
47429;SDS011;33181;49.246;7.372;2022-08-19T11:39:09;6.93;;;6.33;;
47429;SDS011;33181;49.246;7.372;2022-08-19T11:41:38;7.20;;;6.50;;
47429;SDS011;33181;49.246;7.372;2022-08-19T11:44:04;7.93;;;5.97;;
47429;SDS011;33181;49.246;7.372;2022-08-19T11:46:32;7.50;;;6.80;;
47429;SDS011;33181;49.246;7.372;2022-08-19T11:48:59;6.90;;;6.30;;
47429;SDS011;33181;49.246;7.372;2022-08-19T11:51:26;7.00;;;6.30;;
47429;SDS011;33181;49.246;7.372;2022-08-19T11:53:54;6.97;;;6.30;;
47429;SDS011;33181;49.246;7.372;2022-08-19T11:56:22;9.13;;;6.63;;
47429;SDS011;33181;49.246;7.372;2022-08-19T11:58:49;7.03;;;6.43;;
47429;SDS011;33181;49.246;7.372;2022-08-19T12:01:17;7.83;;;7.03;;
47429;SDS011;33181;49.246;7.372;2022-08-19T12:03:45;7.10;;;6.40;;
47429;SDS011;33181;49.246;7.372;2022-08-19T12:06:15;7.70;;;7.00;;
47429;SDS011;33181;49.246;7.372;2022-08-19T12:08:44;7.37;;;6.63;;
47429;SDS011;33181;49.246;7.372;2022-08-19T12:11:11;7.83;;;6.63;;
47429;SDS011;33181;49.246;7.372;2022-08-19T12:13:38;9.10;;;6.73;;
47429;SDS011;33181;49.246;7.372;2022-08-19T12:16:07;7.90;;;7.13;;
47429;SDS011;33181;49.246;7.372;2022-08-19T12:18:37;6.70;;;6.00;;
47429;SDS011;33181;49.246;7.372;2022-08-19T12:21:06;8.13;;;6.80;;
47429;SDS011;33181;49.246;7.372;2022-08-19T12:23:32;7.13;;;6.43;;
47429;SDS011;33181;49.246;7.372;2022-08-19T12:25:57;7.20;;;6.50;;
47429;SDS011;33181;49.246;7.372;2022-08-19T12:28:24;7.20;;;6.30;;
47429;SDS011;33181;49.246;7.372;2022-08-19T12:30:50;7.10;;;6.17;;
47429;SDS011;33181;49.246;7.372;2022-08-19T12:33:17;6.30;;;5.70;;
47429;SDS011;33181;49.246;7.372;2022-08-19T12:35:48;6.50;;;5.90;;
47429;SDS011;33181;49.246;7.372;2022-08-19T12:38:15;6.03;;;5.50;;
47429;SDS011;33181;49.246;7.372;2022-08-19T12:40:41;5.30;;;4.80;;
47429;SDS011;33181;49.246;7.372;2022-08-19T12:43:10;5.07;;;4.57;;
47429;SDS011;33181;49.246;7.372;2022-08-19T12:45:36;5.17;;;4.67;;
47429;SDS011;33181;49.246;7.372;2022-08-19T12:48:03;7.20;;;4.77;;
47429;SDS011;33181;49.246;7.372;2022-08-19T12:50:29;5.70;;;5.17;;
47429;SDS011;33181;49.246;7.372;2022-08-19T12:52:55;5.93;;;5.43;;
47429;SDS011;33181;49.246;7.372;2022-08-19T12:55:22;5.63;;;5.13;;
47429;SDS011;33181;49.246;7.372;2022-08-19T12:57:49;8.50;;;5.87;;
47429;SDS011;33181;49.246;7.372;2022-08-19T13:00:16;6.23;;;5.53;;
47429;SDS011;33181;49.246;7.372;2022-08-19T13:02:46;6.80;;;6.03;;
47429;SDS011;33181;49.246;7.372;2022-08-19T13:05:18;6.80;;;6.20;;
47429;SDS011;33181;49.246;7.372;2022-08-19T13:07:47;7.03;;;6.43;;
47429;SDS011;33181;49.246;7.372;2022-08-19T13:10:18;7.37;;;6.67;;
47429;SDS011;33181;49.246;7.372;2022-08-19T13:12:46;7.10;;;6.50;;
47429;SDS011;33181;49.246;7.372;2022-08-19T13:15:14;7.60;;;6.80;;
47429;SDS011;33181;49.246;7.372;2022-08-19T13:17:45;7.37;;;6.07;;
47429;SDS011;33181;49.246;7.372;2022-08-19T13:20:17;8.13;;;7.37;;
47429;SDS011;33181;49.246;7.372;2022-08-19T13:22:45;10.20;;;7.80;;
47429;SDS011;33181;49.246;7.372;2022-08-19T13:25:12;9.10;;;8.20;;
47429;SDS011;33181;49.246;7.372;2022-08-19T13:27:39;9.17;;;8.33;;
47429;SDS011;33181;49.246;7.372;2022-08-19T13:30:06;9.47;;;8.50;;
47429;SDS011;33181;49.246;7.372;2022-08-19T13:32:54;9.60;;;8.73;;
47429;SDS011;33181;49.246;7.372;2022-08-19T13:35:36;11.37;;;10.00;;
47429;SDS011;33181;49.246;7.372;2022-08-19T13:38:09;10.87;;;9.80;;
47429;SDS011;33181;49.246;7.372;2022-08-19T13:40:36;10.27;;;9.37;;
47429;SDS011;33181;49.246;7.372;2022-08-19T13:43:02;11.97;;;10.87;;
47429;SDS011;33181;49.246;7.372;2022-08-19T13:45:29;14.83;;;11.47;;
47429;SDS011;33181;49.246;7.372;2022-08-19T13:48:00;12.90;;;11.60;;
47429;SDS011;33181;49.246;7.372;2022-08-19T13:50:32;12.60;;;11.50;;
47429;SDS011;33181;49.246;7.372;2022-08-19T13:53:00;13.00;;;11.10;;
47429;SDS011;33181;49.246;7.372;2022-08-19T13:55:27;13.93;;;11.60;;
47429;SDS011;33181;49.246;7.372;2022-08-19T13:57:54;12.47;;;11.20;;
47429;SDS011;33181;49.246;7.372;2022-08-19T14:00:23;12.60;;;11.40;;
47429;SDS011;33181;49.246;7.372;2022-08-19T14:02:52;12.37;;;10.97;;
47429;SDS011;33181;49.246;7.372;2022-08-19T14:05:20;12.87;;;11.73;;
47429;SDS011;33181;49.246;7.372;2022-08-19T14:07:47;12.73;;;11.43;;
47429;SDS011;33181;49.246;7.372;2022-08-19T14:10:13;12.70;;;10.77;;
47429;SDS011;33181;49.246;7.372;2022-08-19T14:12:40;13.23;;;11.67;;
47429;SDS011;33181;49.246;7.372;2022-08-19T14:15:07;12.30;;;10.60;;
47429;SDS011;33181;49.246;7.372;2022-08-19T14:17:34;12.40;;;11.10;;
47429;SDS011;33181;49.246;7.372;2022-08-19T14:20:05;12.03;;;10.93;;
47429;SDS011;33181;49.246;7.372;2022-08-19T14:22:38;12.00;;;10.80;;
47429;SDS011;33181;49.246;7.372;2022-08-19T14:25:06;12.50;;;11.30;;
47429;SDS011;33181;49.246;7.372;2022-08-19T14:27:36;12.37;;;11.07;;
47429;SDS011;33181;49.246;7.372;2022-08-19T14:30:04;12.90;;;11.50;;
47429;SDS011;33181;49.246;7.372;2022-08-19T14:32:33;11.83;;;10.63;;
47429;SDS011;33181;49.246;7.372;2022-08-19T14:35:00;11.60;;;10.40;;
47429;SDS011;33181;49.246;7.372;2022-08-19T14:37:27;13.23;;;10.67;;
47429;SDS011;33181;49.246;7.372;2022-08-19T14:39:52;10.90;;;9.80;;
47429;SDS011;33181;49.246;7.372;2022-08-19T14:42:18;10.63;;;9.63;;
47429;SDS011;33181;49.246;7.372;2022-08-19T14:44:44;10.70;;;9.70;;
47429;SDS011;33181;49.246;7.372;2022-08-19T14:47:10;10.17;;;9.23;;
47429;SDS011;33181;49.246;7.372;2022-08-19T14:49:36;10.73;;;9.23;;
47429;SDS011;33181;49.246;7.372;2022-08-19T14:52:02;12.17;;;9.80;;
47429;SDS011;33181;49.246;7.372;2022-08-19T14:54:28;9.93;;;8.60;;